sensor_id;sensor_type;location;lat;lon;timestamp;temperature;humidity
55083;DHT22;40978;52.850;6.506;2023-02-28T00:00:25;3.90;99.90
55083;DHT22;40978;52.850;6.506;2023-02-28T00:02:51;3.90;99.90
55083;DHT22;40978;52.850;6.506;2023-02-28T00:05:21;3.90;99.90
55083;DHT22;40978;52.850;6.506;2023-02-28T00:07:47;3.90;99.90
55083;DHT22;40978;52.850;6.506;2023-02-28T00:10:16;3.90;99.90
55083;DHT22;40978;52.850;6.506;2023-02-28T00:12:49;4.00;99.90
55083;DHT22;40978;52.850;6.506;2023-02-28T00:15:14;4.00;99.90
55083;DHT22;40978;52.850;6.506;2023-02-28T00:17:40;4.00;99.90
55083;DHT22;40978;52.850;6.506;2023-02-28T00:20:07;4.00;99.90
55083;DHT22;40978;52.850;6.506;2023-02-28T00:22:36;4.10;99.90
55083;DHT22;40978;52.850;6.506;2023-02-28T00:25:03;4.00;99.90
55083;DHT22;40978;52.850;6.506;2023-02-28T00:27:29;4.00;99.90
55083;DHT22;40978;52.850;6.506;2023-02-28T00:29:55;4.00;99.90
55083;DHT22;40978;52.850;6.506;2023-02-28T00:32:21;4.00;99.90
55083;DHT22;40978;52.850;6.506;2023-02-28T00:34:46;4.00;99.90
55083;DHT22;40978;52.850;6.506;2023-02-28T00:37:12;4.00;99.90
55083;DHT22;40978;52.850;6.506;2023-02-28T00:39:39;4.10;99.90
55083;DHT22;40978;52.850;6.506;2023-02-28T00:42:06;4.10;99.90
55083;DHT22;40978;52.850;6.506;2023-02-28T00:44:32;4.00;99.90
55083;DHT22;40978;52.850;6.506;2023-02-28T00:46:59;4.10;99.90
55083;DHT22;40978;52.850;6.506;2023-02-28T00:49:26;4.10;99.90
55083;DHT22;40978;52.850;6.506;2023-02-28T00:51:55;4.00;99.90
55083;DHT22;40978;52.850;6.506;2023-02-28T00:54:22;4.10;99.90
55083;DHT22;40978;52.850;6.506;2023-02-28T00:56:48;4.10;99.90
55083;DHT22;40978;52.850;6.506;2023-02-28T00:59:15;4.10;99.90
55083;DHT22;40978;52.850;6.506;2023-02-28T01:01:42;4.10;99.90
55083;DHT22;40978;52.850;6.506;2023-02-28T01:04:08;4.00;99.90
55083;DHT22;40978;52.850;6.506;2023-02-28T01:06:34;4.10;99.90
55083;DHT22;40978;52.850;6.506;2023-02-28T01:09:00;4.00;99.90
55083;DHT22;40978;52.850;6.506;2023-02-28T01:11:26;4.00;99.90
55083;DHT22;40978;52.850;6.506;2023-02-28T01:13:51;4.00;99.90
55083;DHT22;40978;52.850;6.506;2023-02-28T01:16:18;4.10;99.90
55083;DHT22;40978;52.850;6.506;2023-02-28T01:18:44;4.10;99.90
55083;DHT22;40978;52.850;6.506;2023-02-28T01:21:12;4.10;99.90
55083;DHT22;40978;52.850;6.506;2023-02-28T01:23:39;4.10;99.90
55083;DHT22;40978;52.850;6.506;2023-02-28T01:26:11;4.10;99.90
55083;DHT22;40978;52.850;6.506;2023-02-28T01:28:37;4.10;99.90
55083;DHT22;40978;52.850;6.506;2023-02-28T01:31:03;4.10;99.90
55083;DHT22;40978;52.850;6.506;2023-02-28T01:33:29;4.10;99.90
55083;DHT22;40978;52.850;6.506;2023-02-28T01:35:59;4.10;99.90
55083;DHT22;40978;52.850;6.506;2023-02-28T01:38:25;4.10;99.90
55083;DHT22;40978;52.850;6.506;2023-02-28T01:40:51;4.10;99.90
55083;DHT22;40978;52.850;6.506;2023-02-28T01:43:30;4.10;99.90
55083;DHT22;40978;52.850;6.506;2023-02-28T01:45:58;4.10;99.90
55083;DHT22;40978;52.850;6.506;2023-02-28T01:48:31;4.10;99.90
55083;DHT22;40978;52.850;6.506;2023-02-28T01:51:03;4.10;99.90
55083;DHT22;40978;52.850;6.506;2023-02-28T01:53:36;4.00;99.90
55083;DHT22;40978;52.850;6.506;2023-02-28T01:56:04;4.00;99.90
55083;DHT22;40978;52.850;6.506;2023-02-28T01:58:31;4.00;99.90
55083;DHT22;40978;52.850;6.506;2023-02-28T02:00:57;4.00;99.90
55083;DHT22;40978;52.850;6.506;2023-02-28T02:03:23;4.00;99.90
55083;DHT22;40978;52.850;6.506;2023-02-28T02:05:49;4.00;99.90
55083;DHT22;40978;52.850;6.506;2023-02-28T02:08:22;3.90;99.90
55083;DHT22;40978;52.850;6.506;2023-02-28T02:10:51;4.00;99.90
55083;DHT22;40978;52.850;6.506;2023-02-28T02:20:05;3.80;99.90
55083;DHT22;40978;52.850;6.506;2023-02-28T02:25:04;3.70;99.90
55083;DHT22;40978;52.850;6.506;2023-02-28T02:33:08;3.60;99.90
55083;DHT22;40978;52.850;6.506;2023-02-28T02:35:59;3.60;99.90
55083;DHT22;40978;52.850;6.506;2023-02-28T02:41:18;3.50;99.90
55083;DHT22;40978;52.850;6.506;2023-02-28T02:43:50;3.50;99.90
55083;DHT22;40978;52.850;6.506;2023-02-28T02:46:37;3.50;99.90
55083;DHT22;40978;52.850;6.506;2023-02-28T02:49:08;3.40;99.90
55083;DHT22;40978;52.850;6.506;2023-02-28T02:51:36;3.40;99.90
55083;DHT22;40978;52.850;6.506;2023-02-28T02:54:06;3.40;99.90
55083;DHT22;40978;52.850;6.506;2023-02-28T02:56:35;3.40;99.90
55083;DHT22;40978;52.850;6.506;2023-02-28T02:59:04;3.40;99.90
55083;DHT22;40978;52.850;6.506;2023-02-28T03:01:32;3.40;99.90
55083;DHT22;40978;52.850;6.506;2023-02-28T03:04:08;3.30;99.90
55083;DHT22;40978;52.850;6.506;2023-02-28T03:06:34;3.30;99.90
55083;DHT22;40978;52.850;6.506;2023-02-28T03:09:01;3.30;99.90
55083;DHT22;40978;52.850;6.506;2023-02-28T03:11:27;3.20;99.90
55083;DHT22;40978;52.850;6.506;2023-02-28T03:20:10;3.20;99.90
55083;DHT22;40978;52.850;6.506;2023-02-28T03:22:45;3.20;99.90
55083;DHT22;40978;52.850;6.506;2023-02-28T03:25:37;3.20;99.90
55083;DHT22;40978;52.850;6.506;2023-02-28T03:28:15;3.20;99.90
55083;DHT22;40978;52.850;6.506;2023-02-28T03:31:07;3.10;99.90
55083;DHT22;40978;52.850;6.506;2023-02-28T03:33:47;3.10;99.90
55083;DHT22;40978;52.850;6.506;2023-02-28T03:36:24;3.10;99.90
55083;DHT22;40978;52.850;6.506;2023-02-28T03:38:52;3.10;99.90
55083;DHT22;40978;52.850;6.506;2023-02-28T03:41:30;3.10;99.90
55083;DHT22;40978;52.850;6.506;2023-02-28T03:44:19;3.10;99.90
55083;DHT22;40978;52.850;6.506;2023-02-28T03:47:00;3.10;99.90
55083;DHT22;40978;52.850;6.506;2023-02-28T03:49:36;3.10;99.90
55083;DHT22;40978;52.850;6.506;2023-02-28T03:52:06;3.10;99.90
55083;DHT22;40978;52.850;6.506;2023-02-28T03:54:41;3.00;99.90
55083;DHT22;40978;52.850;6.506;2023-02-28T04:00:04;3.00;99.90
55083;DHT22;40978;52.850;6.506;2023-02-28T04:02:31;3.00;99.90
55083;DHT22;40978;52.850;6.506;2023-02-28T04:04:57;3.00;99.90
55083;DHT22;40978;52.850;6.506;2023-02-28T04:07:25;3.00;99.90
55083;DHT22;40978;52.850;6.506;2023-02-28T04:09:54;3.00;99.90
55083;DHT22;40978;52.850;6.506;2023-02-28T04:12:19;3.00;99.90
55083;DHT22;40978;52.850;6.506;2023-02-28T04:14:46;3.00;99.90
55083;DHT22;40978;52.850;6.506;2023-02-28T04:17:12;3.00;99.90
55083;DHT22;40978;52.850;6.506;2023-02-28T04:19:37;3.00;99.90
55083;DHT22;40978;52.850;6.506;2023-02-28T04:22:03;3.00;99.90
55083;DHT22;40978;52.850;6.506;2023-02-28T04:24:29;3.00;99.90
55083;DHT22;40978;52.850;6.506;2023-02-28T04:26:56;2.90;99.90
55083;DHT22;40978;52.850;6.506;2023-02-28T04:29:32;2.90;99.90
55083;DHT22;40978;52.850;6.506;2023-02-28T04:31:59;2.90;99.90
55083;DHT22;40978;52.850;6.506;2023-02-28T04:34:26;2.90;99.90
55083;DHT22;40978;52.850;6.506;2023-02-28T04:36:53;2.90;99.90
55083;DHT22;40978;52.850;6.506;2023-02-28T04:39:22;2.90;99.90
55083;DHT22;40978;52.850;6.506;2023-02-28T04:41:48;2.90;99.90
55083;DHT22;40978;52.850;6.506;2023-02-28T04:44:14;2.90;99.90
55083;DHT22;40978;52.850;6.506;2023-02-28T04:46:41;2.90;99.90
55083;DHT22;40978;52.850;6.506;2023-02-28T04:49:07;2.90;99.90
55083;DHT22;40978;52.850;6.506;2023-02-28T04:51:33;2.90;99.90
55083;DHT22;40978;52.850;6.506;2023-02-28T04:53:59;2.90;99.90
55083;DHT22;40978;52.850;6.506;2023-02-28T04:56:25;2.80;99.90
55083;DHT22;40978;52.850;6.506;2023-02-28T04:58:50;2.90;99.90
55083;DHT22;40978;52.850;6.506;2023-02-28T05:01:30;2.80;99.90
55083;DHT22;40978;52.850;6.506;2023-02-28T05:03:58;2.80;99.90
55083;DHT22;40978;52.850;6.506;2023-02-28T05:06:26;2.70;99.90
55083;DHT22;40978;52.850;6.506;2023-02-28T05:08:52;2.70;99.90
55083;DHT22;40978;52.850;6.506;2023-02-28T05:11:36;2.80;99.90
55083;DHT22;40978;52.850;6.506;2023-02-28T05:14:04;2.70;99.90
55083;DHT22;40978;52.850;6.506;2023-02-28T05:16:31;2.60;99.90
55083;DHT22;40978;52.850;6.506;2023-02-28T05:18:57;2.60;99.90
55083;DHT22;40978;52.850;6.506;2023-02-28T05:21:31;2.60;99.90
55083;DHT22;40978;52.850;6.506;2023-02-28T05:24:03;2.60;99.90
55083;DHT22;40978;52.850;6.506;2023-02-28T05:26:29;2.60;99.90
55083;DHT22;40978;52.850;6.506;2023-02-28T05:28:55;2.50;99.90
55083;DHT22;40978;52.850;6.506;2023-02-28T05:31:21;2.50;99.90
55083;DHT22;40978;52.850;6.506;2023-02-28T05:33:47;2.50;99.90
55083;DHT22;40978;52.850;6.506;2023-02-28T05:36:13;2.50;99.90
55083;DHT22;40978;52.850;6.506;2023-02-28T05:38:39;2.50;99.90
55083;DHT22;40978;52.850;6.506;2023-02-28T05:41:09;2.50;99.90
55083;DHT22;40978;52.850;6.506;2023-02-28T05:43:35;2.50;99.90
55083;DHT22;40978;52.850;6.506;2023-02-28T05:46:07;2.50;99.90
55083;DHT22;40978;52.850;6.506;2023-02-28T05:48:34;2.50;99.90
55083;DHT22;40978;52.850;6.506;2023-02-28T05:51:00;2.50;99.90
55083;DHT22;40978;52.850;6.506;2023-02-28T05:53:26;2.50;99.90
55083;DHT22;40978;52.850;6.506;2023-02-28T05:55:52;2.40;99.90
55083;DHT22;40978;52.850;6.506;2023-02-28T05:58:18;2.50;99.90
55083;DHT22;40978;52.850;6.506;2023-02-28T06:00:44;2.50;99.90
55083;DHT22;40978;52.850;6.506;2023-02-28T06:03:09;2.50;99.90
55083;DHT22;40978;52.850;6.506;2023-02-28T06:05:35;2.40;99.90
55083;DHT22;40978;52.850;6.506;2023-02-28T06:08:01;2.40;99.90
55083;DHT22;40978;52.850;6.506;2023-02-28T06:10:27;2.40;99.90
55083;DHT22;40978;52.850;6.506;2023-02-28T06:12:52;2.40;99.90
55083;DHT22;40978;52.850;6.506;2023-02-28T06:15:18;2.40;99.90
55083;DHT22;40978;52.850;6.506;2023-02-28T06:17:46;2.40;99.90
55083;DHT22;40978;52.850;6.506;2023-02-28T06:20:12;2.30;99.90
55083;DHT22;40978;52.850;6.506;2023-02-28T06:22:41;2.30;99.90
55083;DHT22;40978;52.850;6.506;2023-02-28T06:25:07;2.30;99.90
55083;DHT22;40978;52.850;6.506;2023-02-28T06:27:33;2.40;99.90
55083;DHT22;40978;52.850;6.506;2023-02-28T06:29:59;2.40;99.90
55083;DHT22;40978;52.850;6.506;2023-02-28T06:32:25;2.30;99.90
55083;DHT22;40978;52.850;6.506;2023-02-28T06:34:51;2.30;99.90
55083;DHT22;40978;52.850;6.506;2023-02-28T06:37:17;2.40;99.90
55083;DHT22;40978;52.850;6.506;2023-02-28T06:39:43;2.30;99.90
55083;DHT22;40978;52.850;6.506;2023-02-28T06:42:09;2.30;99.90
55083;DHT22;40978;52.850;6.506;2023-02-28T06:44:35;2.30;99.90
55083;DHT22;40978;52.850;6.506;2023-02-28T06:47:06;2.30;99.90
55083;DHT22;40978;52.850;6.506;2023-02-28T06:49:33;2.40;99.90
55083;DHT22;40978;52.850;6.506;2023-02-28T06:52:00;2.30;99.90
55083;DHT22;40978;52.850;6.506;2023-02-28T06:54:25;2.30;99.90
55083;DHT22;40978;52.850;6.506;2023-02-28T06:56:51;2.30;99.90
55083;DHT22;40978;52.850;6.506;2023-02-28T06:59:19;2.30;99.90
55083;DHT22;40978;52.850;6.506;2023-02-28T07:01:44;2.30;99.90
55083;DHT22;40978;52.850;6.506;2023-02-28T07:04:10;2.30;99.90
55083;DHT22;40978;52.850;6.506;2023-02-28T07:06:36;2.40;99.90
55083;DHT22;40978;52.850;6.506;2023-02-28T07:09:02;2.40;99.90
55083;DHT22;40978;52.850;6.506;2023-02-28T07:11:29;2.40;99.90
55083;DHT22;40978;52.850;6.506;2023-02-28T07:13:55;2.50;99.90
55083;DHT22;40978;52.850;6.506;2023-02-28T07:16:22;2.40;99.90
55083;DHT22;40978;52.850;6.506;2023-02-28T07:18:48;2.40;99.90
55083;DHT22;40978;52.850;6.506;2023-02-28T07:21:15;2.40;99.90
55083;DHT22;40978;52.850;6.506;2023-02-28T07:23:41;2.40;99.90
55083;DHT22;40978;52.850;6.506;2023-02-28T07:26:13;2.40;99.90
55083;DHT22;40978;52.850;6.506;2023-02-28T07:28:44;2.50;99.90
55083;DHT22;40978;52.850;6.506;2023-02-28T07:31:11;2.50;99.90
55083;DHT22;40978;52.850;6.506;2023-02-28T07:33:37;2.50;99.90
55083;DHT22;40978;52.850;6.506;2023-02-28T07:36:06;2.50;99.90
55083;DHT22;40978;52.850;6.506;2023-02-28T07:38:36;2.50;99.90
55083;DHT22;40978;52.850;6.506;2023-02-28T07:41:03;2.50;99.90
55083;DHT22;40978;52.850;6.506;2023-02-28T07:43:32;2.50;99.90
55083;DHT22;40978;52.850;6.506;2023-02-28T07:46:10;2.50;99.90
55083;DHT22;40978;52.850;6.506;2023-02-28T07:48:36;2.60;99.90
55083;DHT22;40978;52.850;6.506;2023-02-28T07:51:03;2.60;99.90
55083;DHT22;40978;52.850;6.506;2023-02-28T07:53:29;2.60;99.90
55083;DHT22;40978;52.850;6.506;2023-02-28T07:55:56;2.60;99.90
55083;DHT22;40978;52.850;6.506;2023-02-28T07:58:23;2.60;99.90
55083;DHT22;40978;52.850;6.506;2023-02-28T08:00:49;2.70;99.90
55083;DHT22;40978;52.850;6.506;2023-02-28T08:03:16;2.80;99.90
55083;DHT22;40978;52.850;6.506;2023-02-28T08:05:42;3.10;99.90
55083;DHT22;40978;52.850;6.506;2023-02-28T08:08:08;3.10;99.90
55083;DHT22;40978;52.850;6.506;2023-02-28T08:10:34;3.10;99.90
55083;DHT22;40978;52.850;6.506;2023-02-28T08:13:00;3.20;99.90
55083;DHT22;40978;52.850;6.506;2023-02-28T08:15:26;3.20;99.90
55083;DHT22;40978;52.850;6.506;2023-02-28T08:17:52;3.50;99.90
55083;DHT22;40978;52.850;6.506;2023-02-28T08:20:18;4.30;99.90
55083;DHT22;40978;52.850;6.506;2023-02-28T08:22:44;4.70;99.90
55083;DHT22;40978;52.850;6.506;2023-02-28T08:25:10;4.90;99.90
55083;DHT22;40978;52.850;6.506;2023-02-28T08:27:36;5.00;99.90
55083;DHT22;40978;52.850;6.506;2023-02-28T08:30:03;5.00;99.90
55083;DHT22;40978;52.850;6.506;2023-02-28T08:32:29;5.00;99.90
55083;DHT22;40978;52.850;6.506;2023-02-28T08:34:54;4.90;99.90
55083;DHT22;40978;52.850;6.506;2023-02-28T08:37:20;4.90;99.90
55083;DHT22;40978;52.850;6.506;2023-02-28T08:39:46;4.90;99.90
55083;DHT22;40978;52.850;6.506;2023-02-28T08:42:12;4.90;99.90
55083;DHT22;40978;52.850;6.506;2023-02-28T08:44:37;4.80;99.90
55083;DHT22;40978;52.850;6.506;2023-02-28T08:47:03;4.70;99.90
55083;DHT22;40978;52.850;6.506;2023-02-28T08:49:29;4.70;99.90
55083;DHT22;40978;52.850;6.506;2023-02-28T08:51:55;4.90;99.90
55083;DHT22;40978;52.850;6.506;2023-02-28T08:54:23;5.10;99.90
55083;DHT22;40978;52.850;6.506;2023-02-28T08:56:49;5.30;99.90
55083;DHT22;40978;52.850;6.506;2023-02-28T08:59:15;5.40;99.90
55083;DHT22;40978;52.850;6.506;2023-02-28T09:01:41;5.50;99.90
55083;DHT22;40978;52.850;6.506;2023-02-28T09:04:07;5.60;99.90
55083;DHT22;40978;52.850;6.506;2023-02-28T09:06:35;5.80;99.90
55083;DHT22;40978;52.850;6.506;2023-02-28T09:09:01;6.10;99.90
55083;DHT22;40978;52.850;6.506;2023-02-28T09:11:28;6.50;99.90
55083;DHT22;40978;52.850;6.506;2023-02-28T09:13:54;6.80;99.90
55083;DHT22;40978;52.850;6.506;2023-02-28T09:16:23;6.90;99.90
55083;DHT22;40978;52.850;6.506;2023-02-28T09:18:48;6.90;99.90
55083;DHT22;40978;52.850;6.506;2023-02-28T09:21:16;7.00;99.90
55083;DHT22;40978;52.850;6.506;2023-02-28T09:23:43;7.20;99.90
55083;DHT22;40978;52.850;6.506;2023-02-28T09:26:16;7.60;99.90
55083;DHT22;40978;52.850;6.506;2023-02-28T09:28:42;7.80;99.90
55083;DHT22;40978;52.850;6.506;2023-02-28T09:31:14;7.80;99.90
55083;DHT22;40978;52.850;6.506;2023-02-28T09:33:40;7.90;99.90
55083;DHT22;40978;52.850;6.506;2023-02-28T09:36:06;8.10;99.90
55083;DHT22;40978;52.850;6.506;2023-02-28T09:38:32;9.10;99.90
55083;DHT22;40978;52.850;6.506;2023-02-28T09:41:27;10.40;99.90
55083;DHT22;40978;52.850;6.506;2023-02-28T09:44:02;11.60;99.90
55083;DHT22;40978;52.850;6.506;2023-02-28T09:46:33;12.30;99.90
55083;DHT22;40978;52.850;6.506;2023-02-28T09:49:11;13.00;99.90
55083;DHT22;40978;52.850;6.506;2023-02-28T09:51:46;13.50;99.90
55083;DHT22;40978;52.850;6.506;2023-02-28T09:54:24;14.10;99.90
55083;DHT22;40978;52.850;6.506;2023-02-28T09:59:43;15.50;99.90
55083;DHT22;40978;52.850;6.506;2023-02-28T10:04:54;16.50;99.90
55083;DHT22;40978;52.850;6.506;2023-02-28T10:10:04;16.60;99.90
55083;DHT22;40978;52.850;6.506;2023-02-28T10:12:31;16.70;99.90
55083;DHT22;40978;52.850;6.506;2023-02-28T10:14:59;17.00;99.90
55083;DHT22;40978;52.850;6.506;2023-02-28T10:17:37;16.90;98.50
55083;DHT22;40978;52.850;6.506;2023-02-28T10:20:28;16.20;97.60
55083;DHT22;40978;52.850;6.506;2023-02-28T10:25:29;16.70;97.30
55083;DHT22;40978;52.850;6.506;2023-02-28T10:28:01;17.00;96.00
55083;DHT22;40978;52.850;6.506;2023-02-28T10:30:27;16.60;94.70
55083;DHT22;40978;52.850;6.506;2023-02-28T10:32:53;15.10;94.50
55083;DHT22;40978;52.850;6.506;2023-02-28T10:35:24;13.50;94.10
55083;DHT22;40978;52.850;6.506;2023-02-28T10:37:57;12.20;95.10
55083;DHT22;40978;52.850;6.506;2023-02-28T10:42:58;12.20;97.20
55083;DHT22;40978;52.850;6.506;2023-02-28T10:45:25;12.60;94.20
55083;DHT22;40978;52.850;6.506;2023-02-28T10:47:58;13.10;95.10
55083;DHT22;40978;52.850;6.506;2023-02-28T10:53:31;14.60;94.00
55083;DHT22;40978;52.850;6.506;2023-02-28T10:58:26;15.70;93.40
55083;DHT22;40978;52.850;6.506;2023-02-28T11:00:52;16.30;93.10
55083;DHT22;40978;52.850;6.506;2023-02-28T11:03:35;16.70;92.30
55083;DHT22;40978;52.850;6.506;2023-02-28T11:06:15;17.00;85.60
55083;DHT22;40978;52.850;6.506;2023-02-28T11:08:48;17.30;90.00
55083;DHT22;40978;52.850;6.506;2023-02-28T11:11:14;17.50;90.20
55083;DHT22;40978;52.850;6.506;2023-02-28T11:13:44;17.80;88.50
55083;DHT22;40978;52.850;6.506;2023-02-28T11:16:12;18.10;83.60
55083;DHT22;40978;52.850;6.506;2023-02-28T11:18:50;18.10;82.20
55083;DHT22;40978;52.850;6.506;2023-02-28T11:21:27;18.10;79.50
55083;DHT22;40978;52.850;6.506;2023-02-28T11:24:27;18.10;74.30
55083;DHT22;40978;52.850;6.506;2023-02-28T11:26:54;18.10;73.40
55083;DHT22;40978;52.850;6.506;2023-02-28T11:29:24;18.20;74.50
55083;DHT22;40978;52.850;6.506;2023-02-28T11:34:32;18.20;69.00
55083;DHT22;40978;52.850;6.506;2023-02-28T11:36:59;17.90;69.70
55083;DHT22;40978;52.850;6.506;2023-02-28T11:39:26;17.30;67.60
55083;DHT22;40978;52.850;6.506;2023-02-28T11:52:48;16.60;66.10
55083;DHT22;40978;52.850;6.506;2023-02-28T11:55:38;16.80;68.90
55083;DHT22;40978;52.850;6.506;2023-02-28T12:01:13;17.40;66.90
55083;DHT22;40978;52.850;6.506;2023-02-28T12:03:49;17.00;63.50
55083;DHT22;40978;52.850;6.506;2023-02-28T12:06:43;16.80;65.90
55083;DHT22;40978;52.850;6.506;2023-02-28T12:09:28;16.60;62.60
55083;DHT22;40978;52.850;6.506;2023-02-28T12:15:20;16.60;66.80
55083;DHT22;40978;52.850;6.506;2023-02-28T12:20:33;16.70;64.90
55083;DHT22;40978;52.850;6.506;2023-02-28T12:26:11;16.70;63.20
55083;DHT22;40978;52.850;6.506;2023-02-28T12:28:49;16.20;59.70
55083;DHT22;40978;52.850;6.506;2023-02-28T12:31:35;15.90;60.80
55083;DHT22;40978;52.850;6.506;2023-02-28T12:34:07;15.70;62.10
55083;DHT22;40978;52.850;6.506;2023-02-28T12:36:36;15.60;63.30
55083;DHT22;40978;52.850;6.506;2023-02-28T12:39:10;15.40;62.80
55083;DHT22;40978;52.850;6.506;2023-02-28T12:41:48;15.00;63.40
55083;DHT22;40978;52.850;6.506;2023-02-28T12:44:25;14.90;63.10
55083;DHT22;40978;52.850;6.506;2023-02-28T12:46:55;14.60;62.90
55083;DHT22;40978;52.850;6.506;2023-02-28T12:49:38;14.60;64.30
55083;DHT22;40978;52.850;6.506;2023-02-28T12:52:05;15.10;64.20
55083;DHT22;40978;52.850;6.506;2023-02-28T12:54:50;15.20;61.90
55083;DHT22;40978;52.850;6.506;2023-02-28T13:00:00;13.30;65.30
55083;DHT22;40978;52.850;6.506;2023-02-28T13:10:45;9.10;71.40
55083;DHT22;40978;52.850;6.506;2023-02-28T13:13:17;8.60;74.10
55083;DHT22;40978;52.850;6.506;2023-02-28T13:18:40;8.00;74.30
55083;DHT22;40978;52.850;6.506;2023-02-28T13:21:26;8.00;75.20
55083;DHT22;40978;52.850;6.506;2023-02-28T13:29:24;9.30;69.60
55083;DHT22;40978;52.850;6.506;2023-02-28T13:32:27;9.10;71.50
55083;DHT22;40978;52.850;6.506;2023-02-28T13:40:29;8.90;70.60
55083;DHT22;40978;52.850;6.506;2023-02-28T13:42:49;9.20;72.30
55083;DHT22;40978;52.850;6.506;2023-02-28T13:45:27;9.30;70.20
55083;DHT22;40978;52.850;6.506;2023-02-28T13:48:15;9.40;68.90
55083;DHT22;40978;52.850;6.506;2023-02-28T13:50:41;9.50;68.70
55083;DHT22;40978;52.850;6.506;2023-02-28T13:53:21;9.50;69.70
55083;DHT22;40978;52.850;6.506;2023-02-28T13:56:19;9.60;69.20
55083;DHT22;40978;52.850;6.506;2023-02-28T13:59:12;9.30;69.20
55083;DHT22;40978;52.850;6.506;2023-02-28T14:02:17;9.00;71.80
55083;DHT22;40978;52.850;6.506;2023-02-28T14:05:02;8.70;71.00
55083;DHT22;40978;52.850;6.506;2023-02-28T14:07:33;8.50;72.20
55083;DHT22;40978;52.850;6.506;2023-02-28T14:10:07;8.10;72.40
55083;DHT22;40978;52.850;6.506;2023-02-28T14:12:56;7.90;72.70
55083;DHT22;40978;52.850;6.506;2023-02-28T14:15:57;7.70;73.90
55083;DHT22;40978;52.850;6.506;2023-02-28T14:18:30;7.70;74.30
55083;DHT22;40978;52.850;6.506;2023-02-28T14:21:27;7.60;74.70
55083;DHT22;40978;52.850;6.506;2023-02-28T14:32:28;7.20;75.50
55083;DHT22;40978;52.850;6.506;2023-02-28T14:37:44;7.00;78.20
55083;DHT22;40978;52.850;6.506;2023-02-28T14:40:38;6.90;78.70
55083;DHT22;40978;52.850;6.506;2023-02-28T14:43:06;6.80;78.70
55083;DHT22;40978;52.850;6.506;2023-02-28T14:45:44;6.70;79.70
55083;DHT22;40978;52.850;6.506;2023-02-28T14:48:16;6.70;78.90
55083;DHT22;40978;52.850;6.506;2023-02-28T14:50:49;6.60;79.30
55083;DHT22;40978;52.850;6.506;2023-02-28T14:53:18;6.60;79.40
55083;DHT22;40978;52.850;6.506;2023-02-28T14:55:47;6.50;80.30
55083;DHT22;40978;52.850;6.506;2023-02-28T14:58:33;6.50;80.20
55083;DHT22;40978;52.850;6.506;2023-02-28T15:01:02;6.60;80.20
55083;DHT22;40978;52.850;6.506;2023-02-28T15:03:32;6.60;80.30
55083;DHT22;40978;52.850;6.506;2023-02-28T15:06:02;6.60;79.60
55083;DHT22;40978;52.850;6.506;2023-02-28T15:08:29;6.60;80.20
55083;DHT22;40978;52.850;6.506;2023-02-28T15:11:01;6.60;80.40
55083;DHT22;40978;52.850;6.506;2023-02-28T15:13:43;6.60;80.40
55083;DHT22;40978;52.850;6.506;2023-02-28T15:21:19;6.40;81.10
55083;DHT22;40978;52.850;6.506;2023-02-28T15:23:56;6.40;81.30
55083;DHT22;40978;52.850;6.506;2023-02-28T15:26:27;6.40;82.50
55083;DHT22;40978;52.850;6.506;2023-02-28T15:29:05;6.30;82.30
55083;DHT22;40978;52.850;6.506;2023-02-28T15:31:37;6.30;82.70
55083;DHT22;40978;52.850;6.506;2023-02-28T15:34:06;6.20;83.10
55083;DHT22;40978;52.850;6.506;2023-02-28T15:36:38;6.20;83.40
55083;DHT22;40978;52.850;6.506;2023-02-28T15:39:23;6.20;83.60
55083;DHT22;40978;52.850;6.506;2023-02-28T15:41:49;6.20;83.60
55083;DHT22;40978;52.850;6.506;2023-02-28T15:44:26;6.10;83.80
55083;DHT22;40978;52.850;6.506;2023-02-28T15:47:26;6.10;84.00
55083;DHT22;40978;52.850;6.506;2023-02-28T15:49:58;6.10;84.40
55083;DHT22;40978;52.850;6.506;2023-02-28T15:52:28;6.10;84.60
55083;DHT22;40978;52.850;6.506;2023-02-28T15:54:57;6.00;85.50
55083;DHT22;40978;52.850;6.506;2023-02-28T15:57:28;6.10;86.00
55083;DHT22;40978;52.850;6.506;2023-02-28T16:00:03;6.00;86.80
55083;DHT22;40978;52.850;6.506;2023-02-28T16:02:38;6.00;87.10
55083;DHT22;40978;52.850;6.506;2023-02-28T16:07:38;6.00;87.60
55083;DHT22;40978;52.850;6.506;2023-02-28T16:10:05;6.00;87.50
55083;DHT22;40978;52.850;6.506;2023-02-28T16:12:33;6.00;87.20
55083;DHT22;40978;52.850;6.506;2023-02-28T16:15:02;6.00;87.10
55083;DHT22;40978;52.850;6.506;2023-02-28T16:17:34;6.00;87.30
55083;DHT22;40978;52.850;6.506;2023-02-28T16:20:05;6.00;87.40
55083;DHT22;40978;52.850;6.506;2023-02-28T16:22:31;5.90;87.70
55083;DHT22;40978;52.850;6.506;2023-02-28T16:24:57;5.90;87.70
55083;DHT22;40978;52.850;6.506;2023-02-28T16:27:31;5.90;88.20
55083;DHT22;40978;52.850;6.506;2023-02-28T16:29:58;5.80;88.40
55083;DHT22;40978;52.850;6.506;2023-02-28T16:32:24;5.80;88.60
55083;DHT22;40978;52.850;6.506;2023-02-28T16:34:49;5.80;88.80
55083;DHT22;40978;52.850;6.506;2023-02-28T16:37:17;5.70;89.30
55083;DHT22;40978;52.850;6.506;2023-02-28T16:39:44;5.70;89.50
55083;DHT22;40978;52.850;6.506;2023-02-28T16:42:16;5.60;89.90
55083;DHT22;40978;52.850;6.506;2023-02-28T16:44:43;5.60;90.10
55083;DHT22;40978;52.850;6.506;2023-02-28T16:47:10;5.50;90.20
55083;DHT22;40978;52.850;6.506;2023-02-28T16:49:36;5.50;90.40
55083;DHT22;40978;52.850;6.506;2023-02-28T16:52:02;5.40;90.50
55083;DHT22;40978;52.850;6.506;2023-02-28T16:54:27;5.40;90.70
55083;DHT22;40978;52.850;6.506;2023-02-28T16:56:53;5.30;90.80
55083;DHT22;40978;52.850;6.506;2023-02-28T16:59:24;5.30;91.00
55083;DHT22;40978;52.850;6.506;2023-02-28T17:01:51;5.30;91.20
55083;DHT22;40978;52.850;6.506;2023-02-28T17:04:17;5.20;91.30
55083;DHT22;40978;52.850;6.506;2023-02-28T17:06:43;5.10;91.40
55083;DHT22;40978;52.850;6.506;2023-02-28T17:09:16;5.00;91.50
55083;DHT22;40978;52.850;6.506;2023-02-28T17:11:42;5.00;91.70
55083;DHT22;40978;52.850;6.506;2023-02-28T17:14:08;4.90;91.90
55083;DHT22;40978;52.850;6.506;2023-02-28T17:16:36;4.90;92.30
55083;DHT22;40978;52.850;6.506;2023-02-28T17:19:06;4.80;92.40
55083;DHT22;40978;52.850;6.506;2023-02-28T17:21:32;4.80;92.70
55083;DHT22;40978;52.850;6.506;2023-02-28T17:23:59;4.70;92.90
55083;DHT22;40978;52.850;6.506;2023-02-28T17:26:26;4.70;93.30
55083;DHT22;40978;52.850;6.506;2023-02-28T17:28:53;4.70;93.60
55083;DHT22;40978;52.850;6.506;2023-02-28T17:31:21;4.60;94.00
55083;DHT22;40978;52.850;6.506;2023-02-28T17:33:48;4.50;94.20
55083;DHT22;40978;52.850;6.506;2023-02-28T17:36:15;4.50;94.60
55083;DHT22;40978;52.850;6.506;2023-02-28T17:38:41;4.40;94.80
55083;DHT22;40978;52.850;6.506;2023-02-28T17:41:11;4.30;95.00
55083;DHT22;40978;52.850;6.506;2023-02-28T17:43:37;4.20;95.30
55083;DHT22;40978;52.850;6.506;2023-02-28T17:46:02;4.10;95.60
55083;DHT22;40978;52.850;6.506;2023-02-28T17:48:31;4.10;96.30
55083;DHT22;40978;52.850;6.506;2023-02-28T17:50:56;4.00;97.20
55083;DHT22;40978;52.850;6.506;2023-02-28T17:53:22;3.90;97.20
55083;DHT22;40978;52.850;6.506;2023-02-28T17:55:49;3.90;97.70
55083;DHT22;40978;52.850;6.506;2023-02-28T17:58:15;3.80;97.90